sensor_id;sensor_type;location;lat;lon;timestamp;temperature;humidity
13808;DHT22;40769;51.512;5.494;2023-04-01T00:01:32;12.10;99.90
13808;DHT22;40769;51.512;5.494;2023-04-01T00:03:57;12.20;99.90
13808;DHT22;40769;51.512;5.494;2023-04-01T00:06:24;12.10;99.90
13808;DHT22;40769;51.512;5.494;2023-04-01T00:08:50;12.00;99.90
13808;DHT22;40769;51.512;5.494;2023-04-01T00:11:16;12.00;99.90
13808;DHT22;40769;51.512;5.494;2023-04-01T00:13:43;12.00;99.90
13808;DHT22;40769;51.512;5.494;2023-04-01T00:16:09;12.00;99.90
13808;DHT22;40769;51.512;5.494;2023-04-01T00:18:34;11.60;99.90
13808;DHT22;40769;51.512;5.494;2023-04-01T00:21:00;12.10;99.90
13808;DHT22;40769;51.512;5.494;2023-04-01T00:23:26;12.10;99.90
13808;DHT22;40769;51.512;5.494;2023-04-01T00:25:52;12.10;99.90
13808;DHT22;40769;51.512;5.494;2023-04-01T00:28:18;12.00;99.90
13808;DHT22;40769;51.512;5.494;2023-04-01T00:30:44;12.10;99.90
13808;DHT22;40769;51.512;5.494;2023-04-01T00:33:11;12.30;99.90
13808;DHT22;40769;51.512;5.494;2023-04-01T00:35:36;12.10;99.90
13808;DHT22;40769;51.512;5.494;2023-04-01T00:38:03;12.30;99.90
13808;DHT22;40769;51.512;5.494;2023-04-01T00:40:32;12.20;99.90
13808;DHT22;40769;51.512;5.494;2023-04-01T00:42:58;12.20;99.90
13808;DHT22;40769;51.512;5.494;2023-04-01T00:45:32;12.40;99.90
13808;DHT22;40769;51.512;5.494;2023-04-01T00:48:04;12.20;99.90
13808;DHT22;40769;51.512;5.494;2023-04-01T00:50:34;12.20;99.90
13808;DHT22;40769;51.512;5.494;2023-04-01T00:53:01;11.90;99.90
13808;DHT22;40769;51.512;5.494;2023-04-01T00:55:30;12.20;99.90
13808;DHT22;40769;51.512;5.494;2023-04-01T00:58:02;12.20;99.90
13808;DHT22;40769;51.512;5.494;2023-04-01T01:00:29;12.20;99.90
13808;DHT22;40769;51.512;5.494;2023-04-01T01:02:54;12.30;99.90
13808;DHT22;40769;51.512;5.494;2023-04-01T01:05:27;12.50;99.90
13808;DHT22;40769;51.512;5.494;2023-04-01T01:11:08;12.40;99.90
13808;DHT22;40769;51.512;5.494;2023-04-01T01:13:46;12.40;99.90
13808;DHT22;40769;51.512;5.494;2023-04-01T01:16:28;12.40;99.90
13808;DHT22;40769;51.512;5.494;2023-04-01T01:22:01;12.40;99.90
13808;DHT22;40769;51.512;5.494;2023-04-01T01:27:18;11.90;99.90
13808;DHT22;40769;51.512;5.494;2023-04-01T01:35:47;12.30;99.90
13808;DHT22;40769;51.512;5.494;2023-04-01T01:38:18;12.30;99.90
13808;DHT22;40769;51.512;5.494;2023-04-01T01:40:49;12.20;99.90
13808;DHT22;40769;51.512;5.494;2023-04-01T01:43:21;12.30;99.90
13808;DHT22;40769;51.512;5.494;2023-04-01T01:45:50;12.20;99.90
13808;DHT22;40769;51.512;5.494;2023-04-01T01:48:18;12.20;99.90
13808;DHT22;40769;51.512;5.494;2023-04-01T01:50:46;12.20;99.90
13808;DHT22;40769;51.512;5.494;2023-04-01T01:53:14;12.30;99.90
13808;DHT22;40769;51.512;5.494;2023-04-01T01:55:44;12.30;99.90
13808;DHT22;40769;51.512;5.494;2023-04-01T01:58:28;12.40;99.90
13808;DHT22;40769;51.512;5.494;2023-04-01T02:01:01;12.50;99.90
13808;DHT22;40769;51.512;5.494;2023-04-01T02:03:30;12.50;99.90
13808;DHT22;40769;51.512;5.494;2023-04-01T02:06:00;12.80;99.90
13808;DHT22;40769;51.512;5.494;2023-04-01T02:08:35;12.60;99.90
13808;DHT22;40769;51.512;5.494;2023-04-01T02:11:12;12.70;99.90
13808;DHT22;40769;51.512;5.494;2023-04-01T02:13:53;12.40;99.90
13808;DHT22;40769;51.512;5.494;2023-04-01T02:16:37;12.40;99.90
13808;DHT22;40769;51.512;5.494;2023-04-01T02:19:06;12.40;99.90
13808;DHT22;40769;51.512;5.494;2023-04-01T02:21:34;12.30;99.90
13808;DHT22;40769;51.512;5.494;2023-04-01T02:24:03;12.30;99.90
13808;DHT22;40769;51.512;5.494;2023-04-01T02:26:29;12.30;99.90
13808;DHT22;40769;51.512;5.494;2023-04-01T02:28:57;12.20;99.90
13808;DHT22;40769;51.512;5.494;2023-04-01T02:31:24;12.20;99.90
13808;DHT22;40769;51.512;5.494;2023-04-01T02:33:51;12.20;99.90
13808;DHT22;40769;51.512;5.494;2023-04-01T02:36:17;12.10;99.90
13808;DHT22;40769;51.512;5.494;2023-04-01T02:38:44;12.10;99.90
13808;DHT22;40769;51.512;5.494;2023-04-01T02:41:11;12.00;99.90
13808;DHT22;40769;51.512;5.494;2023-04-01T02:43:37;12.00;99.90
13808;DHT22;40769;51.512;5.494;2023-04-01T02:46:03;12.00;99.90
13808;DHT22;40769;51.512;5.494;2023-04-01T02:48:29;12.00;99.90
13808;DHT22;40769;51.512;5.494;2023-04-01T02:50:55;12.20;99.90
13808;DHT22;40769;51.512;5.494;2023-04-01T02:53:21;12.00;99.90
13808;DHT22;40769;51.512;5.494;2023-04-01T02:55:46;12.00;99.90
13808;DHT22;40769;51.512;5.494;2023-04-01T02:58:15;12.00;99.90
13808;DHT22;40769;51.512;5.494;2023-04-01T03:00:40;12.00;99.90
13808;DHT22;40769;51.512;5.494;2023-04-01T03:03:07;12.00;99.90
13808;DHT22;40769;51.512;5.494;2023-04-01T03:05:33;12.00;99.90
13808;DHT22;40769;51.512;5.494;2023-04-01T03:07:59;11.90;99.90
13808;DHT22;40769;51.512;5.494;2023-04-01T03:10:24;12.10;99.90
13808;DHT22;40769;51.512;5.494;2023-04-01T03:12:50;11.90;99.90
13808;DHT22;40769;51.512;5.494;2023-04-01T03:15:16;11.90;99.90
13808;DHT22;40769;51.512;5.494;2023-04-01T03:17:42;11.90;99.90
13808;DHT22;40769;51.512;5.494;2023-04-01T03:20:09;12.10;99.90
13808;DHT22;40769;51.512;5.494;2023-04-01T03:22:36;11.90;99.90
13808;DHT22;40769;51.512;5.494;2023-04-01T03:25:03;12.00;99.90
13808;DHT22;40769;51.512;5.494;2023-04-01T03:27:29;12.00;99.90
13808;DHT22;40769;51.512;5.494;2023-04-01T03:29:54;12.00;99.90
13808;DHT22;40769;51.512;5.494;2023-04-01T03:32:20;12.00;99.90
13808;DHT22;40769;51.512;5.494;2023-04-01T03:34:46;11.90;99.90
13808;DHT22;40769;51.512;5.494;2023-04-01T03:37:11;11.90;99.90
13808;DHT22;40769;51.512;5.494;2023-04-01T03:39:37;11.90;99.90
13808;DHT22;40769;51.512;5.494;2023-04-01T03:42:03;11.90;99.90
13808;DHT22;40769;51.512;5.494;2023-04-01T03:44:32;11.90;99.90
13808;DHT22;40769;51.512;5.494;2023-04-01T03:46:59;11.90;99.90
13808;DHT22;40769;51.512;5.494;2023-04-01T03:49:24;13.00;99.90
13808;DHT22;40769;51.512;5.494;2023-04-01T03:51:50;11.90;99.90
13808;DHT22;40769;51.512;5.494;2023-04-01T03:54:16;12.00;99.90
13808;DHT22;40769;51.512;5.494;2023-04-01T03:56:42;12.10;99.90
13808;DHT22;40769;51.512;5.494;2023-04-01T03:59:08;11.90;99.90
13808;DHT22;40769;51.512;5.494;2023-04-01T04:01:34;11.90;99.90
13808;DHT22;40769;51.512;5.494;2023-04-01T04:04:00;11.90;99.90
13808;DHT22;40769;51.512;5.494;2023-04-01T04:06:26;11.90;99.90
13808;DHT22;40769;51.512;5.494;2023-04-01T04:08:53;11.90;99.90
13808;DHT22;40769;51.512;5.494;2023-04-01T04:11:19;11.80;99.90
13808;DHT22;40769;51.512;5.494;2023-04-01T04:13:45;11.90;99.90
13808;DHT22;40769;51.512;5.494;2023-04-01T04:16:13;11.80;99.90
13808;DHT22;40769;51.512;5.494;2023-04-01T04:18:39;11.90;99.90
13808;DHT22;40769;51.512;5.494;2023-04-01T04:21:04;11.90;99.90
13808;DHT22;40769;51.512;5.494;2023-04-01T04:23:30;11.80;99.90
13808;DHT22;40769;51.512;5.494;2023-04-01T04:26:01;11.90;99.90
13808;DHT22;40769;51.512;5.494;2023-04-01T04:28:28;11.90;99.90
13808;DHT22;40769;51.512;5.494;2023-04-01T04:30:54;11.90;99.90
13808;DHT22;40769;51.512;5.494;2023-04-01T04:33:21;11.90;99.90
13808;DHT22;40769;51.512;5.494;2023-04-01T04:35:46;12.20;99.90
13808;DHT22;40769;51.512;5.494;2023-04-01T04:38:12;11.90;99.90
13808;DHT22;40769;51.512;5.494;2023-04-01T04:40:39;12.00;99.90
13808;DHT22;40769;51.512;5.494;2023-04-01T04:43:05;12.00;99.90
13808;DHT22;40769;51.512;5.494;2023-04-01T04:45:31;12.00;99.90
13808;DHT22;40769;51.512;5.494;2023-04-01T04:47:57;12.10;99.90
13808;DHT22;40769;51.512;5.494;2023-04-01T04:50:24;12.20;99.90
13808;DHT22;40769;51.512;5.494;2023-04-01T04:52:50;12.20;99.90
13808;DHT22;40769;51.512;5.494;2023-04-01T04:55:16;12.30;99.90
13808;DHT22;40769;51.512;5.494;2023-04-01T04:57:43;12.30;99.90
13808;DHT22;40769;51.512;5.494;2023-04-01T05:00:09;12.40;99.90
13808;DHT22;40769;51.512;5.494;2023-04-01T05:02:35;12.40;99.90
13808;DHT22;40769;51.512;5.494;2023-04-01T05:05:01;12.50;99.90
13808;DHT22;40769;51.512;5.494;2023-04-01T05:07:27;12.40;99.90
13808;DHT22;40769;51.512;5.494;2023-04-01T05:09:53;12.60;99.90
13808;DHT22;40769;51.512;5.494;2023-04-01T05:12:18;12.40;99.90
13808;DHT22;40769;51.512;5.494;2023-04-01T05:14:44;12.40;99.90
13808;DHT22;40769;51.512;5.494;2023-04-01T05:17:13;12.40;99.90
13808;DHT22;40769;51.512;5.494;2023-04-01T05:19:39;12.20;99.90
13808;DHT22;40769;51.512;5.494;2023-04-01T05:22:05;12.20;99.90
13808;DHT22;40769;51.512;5.494;2023-04-01T05:24:31;12.10;99.90
13808;DHT22;40769;51.512;5.494;2023-04-01T05:26:58;12.00;99.90
13808;DHT22;40769;51.512;5.494;2023-04-01T05:29:25;11.90;99.90
13808;DHT22;40769;51.512;5.494;2023-04-01T05:31:51;11.90;99.90
13808;DHT22;40769;51.512;5.494;2023-04-01T05:34:16;11.90;99.90
13808;DHT22;40769;51.512;5.494;2023-04-01T05:36:43;11.90;99.90
13808;DHT22;40769;51.512;5.494;2023-04-01T05:39:09;11.90;99.90
13808;DHT22;40769;51.512;5.494;2023-04-01T05:41:38;11.80;99.90
13808;DHT22;40769;51.512;5.494;2023-04-01T05:44:05;11.90;99.90
13808;DHT22;40769;51.512;5.494;2023-04-01T05:46:31;11.80;99.90
13808;DHT22;40769;51.512;5.494;2023-04-01T05:48:57;11.80;99.90
13808;DHT22;40769;51.512;5.494;2023-04-01T05:51:23;11.80;99.90
13808;DHT22;40769;51.512;5.494;2023-04-01T05:53:49;11.70;99.90
13808;DHT22;40769;51.512;5.494;2023-04-01T05:56:15;11.70;99.90
13808;DHT22;40769;51.512;5.494;2023-04-01T05:58:40;11.80;99.90
13808;DHT22;40769;51.512;5.494;2023-04-01T06:01:08;11.70;99.90
13808;DHT22;40769;51.512;5.494;2023-04-01T06:03:34;11.70;99.90
13808;DHT22;40769;51.512;5.494;2023-04-01T06:06:00;11.70;99.90
13808;DHT22;40769;51.512;5.494;2023-04-01T06:08:27;11.70;99.90
13808;DHT22;40769;51.512;5.494;2023-04-01T06:13:25;11.60;99.90
13808;DHT22;40769;51.512;5.494;2023-04-01T06:26:37;11.70;99.90
13808;DHT22;40769;51.512;5.494;2023-04-01T06:34:38;11.70;99.90
13808;DHT22;40769;51.512;5.494;2023-04-01T06:37:15;11.80;99.90
13808;DHT22;40769;51.512;5.494;2023-04-01T06:48:19;11.90;99.90
13808;DHT22;40769;51.512;5.494;2023-04-01T06:54:11;11.90;99.90
13808;DHT22;40769;51.512;5.494;2023-04-01T06:56:42;11.90;99.90
13808;DHT22;40769;51.512;5.494;2023-04-01T06:59:20;11.90;99.90
13808;DHT22;40769;51.512;5.494;2023-04-01T07:01:52;11.90;99.90
13808;DHT22;40769;51.512;5.494;2023-04-01T07:04:29;11.90;99.90
13808;DHT22;40769;51.512;5.494;2023-04-01T07:07:03;11.90;99.90
13808;DHT22;40769;51.512;5.494;2023-04-01T07:09:35;11.90;99.90
13808;DHT22;40769;51.512;5.494;2023-04-01T07:12:28;12.10;99.90
13808;DHT22;40769;51.512;5.494;2023-04-01T07:15:04;12.70;99.90
13808;DHT22;40769;51.512;5.494;2023-04-01T07:17:33;12.10;99.90
13808;DHT22;40769;51.512;5.494;2023-04-01T07:20:22;12.20;99.90
13808;DHT22;40769;51.512;5.494;2023-04-01T07:22:50;12.20;99.90
13808;DHT22;40769;51.512;5.494;2023-04-01T07:25:30;12.30;99.90
13808;DHT22;40769;51.512;5.494;2023-04-01T07:28:04;12.30;99.90
13808;DHT22;40769;51.512;5.494;2023-04-01T07:30:47;12.40;99.90
13808;DHT22;40769;51.512;5.494;2023-04-01T07:35:56;12.40;99.90
13808;DHT22;40769;51.512;5.494;2023-04-01T07:41:32;12.50;99.90
13808;DHT22;40769;51.512;5.494;2023-04-01T07:47:34;12.50;99.90
13808;DHT22;40769;51.512;5.494;2023-04-01T07:50:11;12.40;99.90
13808;DHT22;40769;51.512;5.494;2023-04-01T07:55:25;12.40;99.90
13808;DHT22;40769;51.512;5.494;2023-04-01T08:00:51;12.50;99.90
13808;DHT22;40769;51.512;5.494;2023-04-01T08:06:33;12.60;99.90
13808;DHT22;40769;51.512;5.494;2023-04-01T08:09:33;12.60;99.90
13808;DHT22;40769;51.512;5.494;2023-04-01T08:15:00;12.70;99.90
13808;DHT22;40769;51.512;5.494;2023-04-01T08:18:17;12.80;99.90
13808;DHT22;40769;51.512;5.494;2023-04-01T08:23:24;12.90;99.90
13808;DHT22;40769;51.512;5.494;2023-04-01T08:28:41;13.00;99.90
13808;DHT22;40769;51.512;5.494;2023-04-01T08:33:47;13.00;99.90
13808;DHT22;40769;51.512;5.494;2023-04-01T08:36:20;13.00;99.90
13808;DHT22;40769;51.512;5.494;2023-04-01T08:39:09;13.00;99.90
13808;DHT22;40769;51.512;5.494;2023-04-01T08:41:50;13.00;99.90
13808;DHT22;40769;51.512;5.494;2023-04-01T08:50:04;13.10;99.90
13808;DHT22;40769;51.512;5.494;2023-04-01T09:18:15;13.30;99.90
13808;DHT22;40769;51.512;5.494;2023-04-01T09:24:07;13.20;99.90
13808;DHT22;40769;51.512;5.494;2023-04-01T09:37:57;13.50;99.90
13808;DHT22;40769;51.512;5.494;2023-04-01T09:43:45;13.50;99.90
13808;DHT22;40769;51.512;5.494;2023-04-01T09:52:29;13.60;99.90
13808;DHT22;40769;51.512;5.494;2023-04-01T09:57:51;13.60;99.90
13808;DHT22;40769;51.512;5.494;2023-04-01T10:14:34;13.80;99.90
13808;DHT22;40769;51.512;5.494;2023-04-01T10:20:01;13.90;99.90
13808;DHT22;40769;51.512;5.494;2023-04-01T10:22:47;13.90;99.90
13808;DHT22;40769;51.512;5.494;2023-04-01T10:27:58;13.90;99.90
13808;DHT22;40769;51.512;5.494;2023-04-01T10:33:16;13.90;99.90
13808;DHT22;40769;51.512;5.494;2023-04-01T10:55:59;13.70;99.90
13808;DHT22;40769;51.512;5.494;2023-04-01T11:05:35;13.60;99.90
13808;DHT22;40769;51.512;5.494;2023-04-01T11:11:17;13.70;99.90
13808;DHT22;40769;51.512;5.494;2023-04-01T11:36:06;13.90;99.90
13808;DHT22;40769;51.512;5.494;2023-04-01T11:55:19;13.80;99.90
13808;DHT22;40769;51.512;5.494;2023-04-01T11:58:22;13.90;99.90
13808;DHT22;40769;51.512;5.494;2023-04-01T12:01:07;13.80;99.90
13808;DHT22;40769;51.512;5.494;2023-04-01T12:15:23;13.80;99.90
13808;DHT22;40769;51.512;5.494;2023-04-01T12:23:41;13.90;99.90
13808;DHT22;40769;51.512;5.494;2023-04-01T12:26:40;13.90;99.90
13808;DHT22;40769;51.512;5.494;2023-04-01T12:32:39;13.80;99.90
13808;DHT22;40769;51.512;5.494;2023-04-01T12:41:09;13.70;99.90
13808;DHT22;40769;51.512;5.494;2023-04-01T12:52:43;13.70;99.90
13808;DHT22;40769;51.512;5.494;2023-04-01T13:09:33;13.80;99.90
13808;DHT22;40769;51.512;5.494;2023-04-01T13:15:19;13.80;99.90
13808;DHT22;40769;51.512;5.494;2023-04-01T13:18:06;13.70;99.90
13808;DHT22;40769;51.512;5.494;2023-04-01T13:23:45;13.80;99.90
13808;DHT22;40769;51.512;5.494;2023-04-01T13:26:18;13.70;99.90
13808;DHT22;40769;51.512;5.494;2023-04-01T13:28:57;13.70;99.90
13808;DHT22;40769;51.512;5.494;2023-04-01T13:37:31;13.60;99.90
13808;DHT22;40769;51.512;5.494;2023-04-01T13:42:59;13.50;99.90
13808;DHT22;40769;51.512;5.494;2023-04-01T14:01:53;13.30;99.90
13808;DHT22;40769;51.512;5.494;2023-04-01T14:04:40;13.30;99.90
13808;DHT22;40769;51.512;5.494;2023-04-01T14:09:57;13.20;99.90
13808;DHT22;40769;51.512;5.494;2023-04-01T14:12:42;13.20;99.90
13808;DHT22;40769;51.512;5.494;2023-04-01T14:34:54;13.20;99.90
13808;DHT22;40769;51.512;5.494;2023-04-01T14:37:58;13.20;99.90
13808;DHT22;40769;51.512;5.494;2023-04-01T14:40:40;13.30;99.90
13808;DHT22;40769;51.512;5.494;2023-04-01T14:43:41;13.30;99.90
13808;DHT22;40769;51.512;5.494;2023-04-01T14:49:03;13.40;99.90
13808;DHT22;40769;51.512;5.494;2023-04-01T14:51:36;13.40;99.90
13808;DHT22;40769;51.512;5.494;2023-04-01T14:54:33;13.40;99.90
13808;DHT22;40769;51.512;5.494;2023-04-01T15:02:38;13.30;99.90
13808;DHT22;40769;51.512;5.494;2023-04-01T15:08:16;13.30;99.90
13808;DHT22;40769;51.512;5.494;2023-04-01T15:14:01;13.10;99.90
13808;DHT22;40769;51.512;5.494;2023-04-01T15:16:47;13.10;99.90
13808;DHT22;40769;51.512;5.494;2023-04-01T15:25:37;13.10;99.90
13808;DHT22;40769;51.512;5.494;2023-04-01T15:33:26;13.00;99.90
13808;DHT22;40769;51.512;5.494;2023-04-01T15:41:15;13.00;99.90
13808;DHT22;40769;51.512;5.494;2023-04-01T15:43:44;13.00;99.90
13808;DHT22;40769;51.512;5.494;2023-04-01T16:00:31;12.90;99.90
13808;DHT22;40769;51.512;5.494;2023-04-01T16:03:36;12.90;99.90
13808;DHT22;40769;51.512;5.494;2023-04-01T16:21:51;12.80;99.90
13808;DHT22;40769;51.512;5.494;2023-04-01T16:24:43;12.80;99.90
13808;DHT22;40769;51.512;5.494;2023-04-01T16:29:48;12.80;99.90
13808;DHT22;40769;51.512;5.494;2023-04-01T16:32:38;12.80;99.90
13808;DHT22;40769;51.512;5.494;2023-04-01T16:35:45;12.90;99.90
13808;DHT22;40769;51.512;5.494;2023-04-01T16:43:35;12.90;99.90
13808;DHT22;40769;51.512;5.494;2023-04-01T16:54:33;12.80;99.90
13808;DHT22;40769;51.512;5.494;2023-04-01T16:57:17;12.80;99.90
13808;DHT22;40769;51.512;5.494;2023-04-01T17:00:01;12.70;99.90
13808;DHT22;40769;51.512;5.494;2023-04-01T17:02:58;12.70;99.90
13808;DHT22;40769;51.512;5.494;2023-04-01T17:06:01;12.70;99.90
13808;DHT22;40769;51.512;5.494;2023-04-01T17:09:06;12.70;99.90
13808;DHT22;40769;51.512;5.494;2023-04-01T17:14:23;12.70;99.90
13808;DHT22;40769;51.512;5.494;2023-04-01T17:20:05;12.80;99.90
13808;DHT22;40769;51.512;5.494;2023-04-01T17:22:44;12.80;99.90
13808;DHT22;40769;51.512;5.494;2023-04-01T17:40:31;12.90;99.90
13808;DHT22;40769;51.512;5.494;2023-04-01T17:43:22;12.90;99.90
13808;DHT22;40769;51.512;5.494;2023-04-01T17:49:05;13.00;99.90
13808;DHT22;40769;51.512;5.494;2023-04-01T18:11:34;13.20;99.90
13808;DHT22;40769;51.512;5.494;2023-04-01T18:22:42;13.00;99.90
13808;DHT22;40769;51.512;5.494;2023-04-01T18:25:19;13.10;99.90
13808;DHT22;40769;51.512;5.494;2023-04-01T18:27:53;13.00;99.90
13808;DHT22;40769;51.512;5.494;2023-04-01T18:30:26;13.00;99.90
13808;DHT22;40769;51.512;5.494;2023-04-01T18:33:01;13.00;99.90
13808;DHT22;40769;51.512;5.494;2023-04-01T18:36:02;13.00;99.90
13808;DHT22;40769;51.512;5.494;2023-04-01T18:38:40;13.00;99.90
13808;DHT22;40769;51.512;5.494;2023-04-01T18:46:39;13.00;99.90
13808;DHT22;40769;51.512;5.494;2023-04-01T18:51:39;13.00;99.90
13808;DHT22;40769;51.512;5.494;2023-04-01T18:56:43;12.90;99.90
13808;DHT22;40769;51.512;5.494;2023-04-01T19:01:59;12.80;99.90
13808;DHT22;40769;51.512;5.494;2023-04-01T19:07:42;12.70;99.90
13808;DHT22;40769;51.512;5.494;2023-04-01T19:10:26;12.70;99.90
13808;DHT22;40769;51.512;5.494;2023-04-01T19:21:07;12.50;99.90
13808;DHT22;40769;51.512;5.494;2023-04-01T19:31:57;12.30;99.90
13808;DHT22;40769;51.512;5.494;2023-04-01T19:34:45;12.30;99.90
13808;DHT22;40769;51.512;5.494;2023-04-01T19:37:45;12.30;99.90
13808;DHT22;40769;51.512;5.494;2023-04-01T19:46:00;12.30;99.90
13808;DHT22;40769;51.512;5.494;2023-04-01T19:48:36;12.30;99.90
13808;DHT22;40769;51.512;5.494;2023-04-01T19:51:13;12.30;99.90
13808;DHT22;40769;51.512;5.494;2023-04-01T19:56:53;12.20;99.90
13808;DHT22;40769;51.512;5.494;2023-04-01T19:59:37;12.20;99.90
13808;DHT22;40769;51.512;5.494;2023-04-01T20:04:49;12.10;99.90
13808;DHT22;40769;51.512;5.494;2023-04-01T20:07:18;12.00;99.90
13808;DHT22;40769;51.512;5.494;2023-04-01T20:09:49;12.00;99.90
13808;DHT22;40769;51.512;5.494;2023-04-01T20:14:53;11.90;99.90
13808;DHT22;40769;51.512;5.494;2023-04-01T20:17:25;11.90;99.90
13808;DHT22;40769;51.512;5.494;2023-04-01T20:36:10;11.70;99.90
13808;DHT22;40769;51.512;5.494;2023-04-01T20:54:51;11.50;99.90
13808;DHT22;40769;51.512;5.494;2023-04-01T20:57:21;11.50;99.90
13808;DHT22;40769;51.512;5.494;2023-04-01T21:13:48;11.40;99.90
13808;DHT22;40769;51.512;5.494;2023-04-01T21:22:30;11.30;99.90
13808;DHT22;40769;51.512;5.494;2023-04-01T21:32:56;11.20;99.90
13808;DHT22;40769;51.512;5.494;2023-04-01T21:47:21;11.10;99.90
13808;DHT22;40769;51.512;5.494;2023-04-01T22:00:42;10.90;99.90
13808;DHT22;40769;51.512;5.494;2023-04-01T22:03:44;10.80;99.90
13808;DHT22;40769;51.512;5.494;2023-04-01T22:14:49;10.60;99.90
13808;DHT22;40769;51.512;5.494;2023-04-01T22:17:25;10.60;99.90
13808;DHT22;40769;51.512;5.494;2023-04-01T22:23:21;10.60;99.90
13808;DHT22;40769;51.512;5.494;2023-04-01T22:25:55;10.50;99.90
13808;DHT22;40769;51.512;5.494;2023-04-01T22:28:26;10.70;99.90
13808;DHT22;40769;51.512;5.494;2023-04-01T22:31:02;10.90;99.90
13808;DHT22;40769;51.512;5.494;2023-04-01T22:39:19;10.50;99.90
13808;DHT22;40769;51.512;5.494;2023-04-01T22:47:20;10.30;99.90
13808;DHT22;40769;51.512;5.494;2023-04-01T22:49:54;10.30;99.90
13808;DHT22;40769;51.512;5.494;2023-04-01T22:52:42;10.40;99.90
13808;DHT22;40769;51.512;5.494;2023-04-01T22:55:16;10.20;99.90
13808;DHT22;40769;51.512;5.494;2023-04-01T22:58:07;10.10;99.90
13808;DHT22;40769;51.512;5.494;2023-04-01T23:00:47;10.10;99.90
13808;DHT22;40769;51.512;5.494;2023-04-01T23:03:21;10.10;99.90
13808;DHT22;40769;51.512;5.494;2023-04-01T23:05:50;10.10;99.90
13808;DHT22;40769;51.512;5.494;2023-04-01T23:11:09;10.10;99.90
13808;DHT22;40769;51.512;5.494;2023-04-01T23:13:39;10.10;99.90
13808;DHT22;40769;51.512;5.494;2023-04-01T23:16:07;10.10;99.90
13808;DHT22;40769;51.512;5.494;2023-04-01T23:19:00;10.10;99.90
13808;DHT22;40769;51.512;5.494;2023-04-01T23:21:39;10.00;99.90
13808;DHT22;40769;51.512;5.494;2023-04-01T23:26:59;10.00;99.90
13808;DHT22;40769;51.512;5.494;2023-04-01T23:29:26;9.90;99.90
13808;DHT22;40769;51.512;5.494;2023-04-01T23:32:01;9.90;99.90
13808;DHT22;40769;51.512;5.494;2023-04-01T23:34:34;9.90;99.90
13808;DHT22;40769;51.512;5.494;2023-04-01T23:37:11;9.90;99.90
13808;DHT22;40769;51.512;5.494;2023-04-01T23:39:40;9.90;99.90
13808;DHT22;40769;51.512;5.494;2023-04-01T23:42:18;9.80;99.90
13808;DHT22;40769;51.512;5.494;2023-04-01T23:44:46;9.80;99.90
13808;DHT22;40769;51.512;5.494;2023-04-01T23:47:24;9.80;99.90
13808;DHT22;40769;51.512;5.494;2023-04-01T23:49:56;9.80;99.90
13808;DHT22;40769;51.512;5.494;2023-04-01T23:52:25;9.80;99.90
13808;DHT22;40769;51.512;5.494;2023-04-01T23:54:58;9.70;99.90
13808;DHT22;40769;51.512;5.494;2023-04-01T23:57:33;9.70;99.90
